EGNX/EMA METAR and TAF weather

Enter ICAO airport designator
Station Type Date Time Source
EGNX METAR 2018/07/19 06:50 UTC NOAA

EGNX 190650Z 28004KT CAVOK 16/13 Q1019


Station Type Date Time Source
EGNX Decoded METAR 2018/07/19 06:50 UTC NOAA

East Midlands, United Kingdom (EGNX) 52-50N 001-20W
Jul 19, 2018 - 02:50 AM EDT / 2018.07.19 0650 UTC
Wind: from the W (280 degrees) at 5 MPH (4 KT):0
Visibility: greater than 7 mile(s):0
Temperature: 60 F (16 C)
Dew Point: 55 F (13 C)
Relative Humidity: 82%
Pressure (altimeter): 30.09 in. Hg (1019 hPa)
ob: EGNX 190650Z 28004KT CAVOK 16/13 Q1019
cycle: 7

Station Type Date Time Source
EGNX TAF 2018/07/19 06:16 UTC NOAA

TAF EGNX 190452Z 1906/2006 26005KT 9999 FEW045


Example: see airport list